createdAt,value
2023-05-23T00:01:58.978Z,44.46
2023-05-23T00:04:27.421Z,44.52
2023-05-23T00:06:55.042Z,44.48
2023-05-23T00:09:22.701Z,44.46
2023-05-23T00:11:50.416Z,44.42
2023-05-23T00:14:18.443Z,44.41
2023-05-23T00:16:46.425Z,44.45
2023-05-23T00:19:17.367Z,44.41
2023-05-23T00:21:49.772Z,44.48
2023-05-23T00:24:18.767Z,44.58
2023-05-23T00:26:46.884Z,44.43
2023-05-23T00:29:18.481Z,44.34
2023-05-23T00:31:46.811Z,44.32
2023-05-23T00:34:18.019Z,44.29
2023-05-23T00:36:48.033Z,44.31
2023-05-23T00:39:21.920Z,44.24
2023-05-23T00:41:52.277Z,44.23
2023-05-23T00:44:21.395Z,44.24
2023-05-23T00:46:55.478Z,44.27
2023-05-23T00:49:23.741Z,44.24
2023-05-23T00:51:52.135Z,44.14
2023-05-23T00:54:23.987Z,44.09
2023-05-23T00:56:51.763Z,44.16
2023-05-23T00:59:21.300Z,44.07
2023-05-23T01:01:49.667Z,44.05
2023-05-23T01:04:20.026Z,43.94
2023-05-23T01:06:49.226Z,43.96
2023-05-23T01:09:17.262Z,43.97
2023-05-23T01:12:18.696Z,43.97
2023-05-23T01:15:15.622Z,43.96
2023-05-23T01:17:56.086Z,43.88
2023-05-23T01:20:30.396Z,43.85
2023-05-23T01:23:01.176Z,43.87
2023-05-23T01:25:59.474Z,43.86
2023-05-23T01:28:36.431Z,43.85
2023-05-23T01:31:04.501Z,43.81
2023-05-23T01:33:32.278Z,43.81
2023-05-23T01:36:02.040Z,43.80
2023-05-23T01:38:29.644Z,43.80
2023-05-23T01:40:56.955Z,43.65
2023-05-23T01:43:24.725Z,43.67
2023-05-23T01:45:54.123Z,43.76
2023-05-23T01:48:21.658Z,43.92
2023-05-23T01:50:49.158Z,43.90
2023-05-23T01:53:19.618Z,43.80
2023-05-23T01:55:47.767Z,43.78
2023-05-23T01:58:15.218Z,43.77
2023-05-23T02:00:43.041Z,43.78
2023-05-23T02:03:11.817Z,43.77
2023-05-23T02:05:39.793Z,43.75
2023-05-23T02:08:07.698Z,43.75
2023-05-23T02:10:38.628Z,43.79
2023-05-23T02:13:06.048Z,43.77
2023-05-23T02:15:33.544Z,43.84
2023-05-23T02:18:03.257Z,43.83
2023-05-23T02:20:31.171Z,43.81
2023-05-23T02:22:58.780Z,43.52
2023-05-23T02:25:26.622Z,43.56
2023-05-23T02:27:54.055Z,43.61
2023-05-23T02:30:22.380Z,43.61
2023-05-23T02:32:50.225Z,43.63
2023-05-23T02:35:17.657Z,43.58
2023-05-23T02:37:45.491Z,43.60
2023-05-23T02:40:12.998Z,43.67
2023-05-23T02:42:40.492Z,43.60
2023-05-23T02:45:08.902Z,43.60
2023-05-23T02:47:36.471Z,43.67
2023-05-23T02:50:04.051Z,43.62
2023-05-23T02:52:32.910Z,43.63
2023-05-23T02:55:00.578Z,43.53
2023-05-23T02:57:28.287Z,43.51
2023-05-23T02:59:56.327Z,43.48
2023-05-23T03:02:23.832Z,43.59
2023-05-23T03:04:51.445Z,43.58
2023-05-23T03:07:27.410Z,43.52
2023-05-23T03:09:55.586Z,43.52
2023-05-23T03:12:23.463Z,43.58
2023-05-23T03:14:51.018Z,43.58
2023-05-23T03:17:18.636Z,43.57
2023-05-23T03:19:46.507Z,43.52
2023-05-23T03:22:14.165Z,43.51
2023-05-23T03:24:43.228Z,43.56
2023-05-23T03:27:11.900Z,43.52
2023-05-23T03:29:39.755Z,43.48
2023-05-23T03:32:07.565Z,43.47
2023-05-23T03:34:36.672Z,43.44
2023-05-23T03:37:04.363Z,43.41
2023-05-23T03:39:32.099Z,43.36
2023-05-23T03:42:00.013Z,43.41
2023-05-23T03:44:28.226Z,43.36
2023-05-23T03:46:55.835Z,43.32
2023-05-23T03:49:23.719Z,43.31
2023-05-23T03:51:51.605Z,43.32
2023-05-23T03:54:19.229Z,43.33
2023-05-23T03:56:47.192Z,43.39
2023-05-23T03:59:15.951Z,43.49
2023-05-23T04:01:43.682Z,43.64
2023-05-23T04:04:11.670Z,43.83
2023-05-23T04:06:39.649Z,44.08
2023-05-23T04:09:07.225Z,44.31
2023-05-23T04:11:35.657Z,44.53
2023-05-23T04:14:04.191Z,44.68
2023-05-23T04:16:33.454Z,44.90
2023-05-23T04:19:05.473Z,45.04
2023-05-23T04:21:33.720Z,45.01
2023-05-23T04:24:02.172Z,44.96
2023-05-23T04:26:29.740Z,44.94
2023-05-23T04:28:57.353Z,44.96
2023-05-23T04:31:25.454Z,44.93
2023-05-23T04:33:53.042Z,44.90
2023-05-23T04:36:20.697Z,44.88
2023-05-23T04:38:49.361Z,44.84
2023-05-23T04:41:16.934Z,44.83
2023-05-23T04:43:46.143Z,44.76
2023-05-23T04:46:14.152Z,44.65
2023-05-23T04:48:42.820Z,44.52
2023-05-23T04:51:11.518Z,44.46
2023-05-23T04:53:41.311Z,44.35
2023-05-23T04:56:09.968Z,44.26
2023-05-23T04:58:37.814Z,44.30
2023-05-23T05:01:06.601Z,44.35
2023-05-23T05:03:34.130Z,44.38
2023-05-23T05:06:02.274Z,44.44
2023-05-23T05:08:30.058Z,44.49
2023-05-23T05:10:58.036Z,44.58
2023-05-23T05:13:25.694Z,44.71
2023-05-23T05:15:53.665Z,44.78
2023-05-23T05:18:21.141Z,44.82
2023-05-23T05:20:48.642Z,44.82
2023-05-23T05:23:16.686Z,44.80
2023-05-23T05:25:44.146Z,44.80
2023-05-23T05:28:12.269Z,44.78
2023-05-23T05:30:40.579Z,44.74
2023-05-23T05:33:08.896Z,44.70
2023-05-23T05:35:38.367Z,44.68
2023-05-23T05:38:07.009Z,44.63
2023-05-23T05:40:34.899Z,44.55
2023-05-23T05:43:02.634Z,44.49
2023-05-23T05:45:30.563Z,44.56
2023-05-23T05:47:58.821Z,44.60
2023-05-23T05:50:27.320Z,44.67
2023-05-23T05:52:55.117Z,44.95
2023-05-23T05:55:23.244Z,45.35
2023-05-23T05:57:51.851Z,45.72
2023-05-23T06:00:20.626Z,46.05
2023-05-23T06:02:52.261Z,46.29
2023-05-23T06:05:20.399Z,46.43
2023-05-23T06:07:48.892Z,46.56
2023-05-23T06:10:16.741Z,46.62
2023-05-23T06:12:45.789Z,46.69
2023-05-23T06:15:14.752Z,46.63
2023-05-23T06:17:43.009Z,46.71
2023-05-23T06:20:11.472Z,46.75
2023-05-23T06:22:40.082Z,46.78
2023-05-23T06:25:08.215Z,46.78
2023-05-23T06:27:35.682Z,46.68
2023-05-23T06:30:06.674Z,46.79
2023-05-23T06:32:34.452Z,46.83
2023-05-23T06:35:01.990Z,46.79
2023-05-23T06:37:29.720Z,46.76
2023-05-23T06:39:57.488Z,46.80
2023-05-23T06:42:25.018Z,46.81
2023-05-23T06:44:53.516Z,46.66
2023-05-23T06:47:21.513Z,46.72
2023-05-23T06:49:49.346Z,46.77
2023-05-23T06:52:16.997Z,46.69
2023-05-23T06:54:44.939Z,46.73
2023-05-23T06:57:12.749Z,46.69
2023-05-23T06:59:40.645Z,46.55
2023-05-23T07:02:08.594Z,46.61
2023-05-23T07:04:37.412Z,46.57
2023-05-23T07:07:05.460Z,46.41
2023-05-23T07:09:33.543Z,46.23
2023-05-23T07:12:02.598Z,46.32
2023-05-23T07:14:30.319Z,46.20
2023-05-23T07:16:58.429Z,45.89
2023-05-23T07:19:26.084Z,45.72
2023-05-23T07:21:53.809Z,45.93
2023-05-23T07:24:25.089Z,45.91
2023-05-23T07:26:55.483Z,45.72
2023-05-23T07:29:23.545Z,45.64
2023-05-23T07:31:51.548Z,45.75
2023-05-23T07:34:19.010Z,45.86
2023-05-23T07:36:47.639Z,45.85
2023-05-23T07:39:15.634Z,45.84
2023-05-23T07:41:43.135Z,45.80
2023-05-23T07:44:11.085Z,45.81
2023-05-23T07:46:38.638Z,45.74
2023-05-23T07:49:06.280Z,45.76
2023-05-23T07:51:34.676Z,45.69
2023-05-23T07:54:02.175Z,45.62
2023-05-23T07:56:29.726Z,45.59
2023-05-23T07:58:57.482Z,45.54
2023-05-23T08:01:25.601Z,45.45
2023-05-23T08:03:53.842Z,45.50
2023-05-23T08:06:21.676Z,45.48
2023-05-23T08:08:49.428Z,45.43
2023-05-23T08:11:17.238Z,45.43
2023-05-23T08:13:45.164Z,45.35
2023-05-23T08:16:15.642Z,45.28
2023-05-23T08:18:43.506Z,45.30
2023-05-23T08:21:11.032Z,45.30
2023-05-23T08:23:38.464Z,45.28
2023-05-23T08:26:06.212Z,45.25
2023-05-23T08:28:34.848Z,45.24
2023-05-23T08:31:02.457Z,45.22
2023-05-23T08:33:30.792Z,45.36
2023-05-23T08:35:58.617Z,45.55
2023-05-23T08:38:27.241Z,45.55
2023-05-23T08:40:57.220Z,45.65
2023-05-23T08:43:25.169Z,45.66
2023-05-23T08:45:52.960Z,45.64
2023-05-23T08:48:21.407Z,45.56
2023-05-23T08:50:49.292Z,45.56
2023-05-23T08:53:20.697Z,45.57
2023-05-23T08:55:51.198Z,45.59
2023-05-23T08:58:20.716Z,45.62
2023-05-23T09:00:48.857Z,45.37
2023-05-23T09:03:16.881Z,45.49
2023-05-23T09:05:44.878Z,45.56
2023-05-23T09:08:13.269Z,45.52
2023-05-23T09:10:42.245Z,45.58
2023-05-23T09:13:10.566Z,45.64
2023-05-23T09:15:39.119Z,45.56
2023-05-23T09:18:06.728Z,45.52
2023-05-23T09:20:34.720Z,45.50
2023-05-23T09:23:05.881Z,45.41
2023-05-23T09:25:33.458Z,45.37
2023-05-23T09:28:01.515Z,45.05
2023-05-23T09:30:29.661Z,45.05
2023-05-23T09:33:00.713Z,44.98
2023-05-23T09:35:31.024Z,44.98
2023-05-23T09:38:01.723Z,44.85
2023-05-23T09:40:31.245Z,44.69
2023-05-23T09:43:05.680Z,44.72
2023-05-23T09:45:33.767Z,44.86
2023-05-23T09:48:01.774Z,44.68
2023-05-23T09:50:33.462Z,44.81
2023-05-23T09:53:02.903Z,44.73
2023-05-23T09:55:30.849Z,44.83
2023-05-23T09:57:59.210Z,44.88
2023-05-23T10:00:26.942Z,44.93
2023-05-23T10:03:12.637Z,44.93
2023-05-23T10:05:53.362Z,44.96
2023-05-23T10:08:41.350Z,44.92
2023-05-23T10:11:14.861Z,44.89
2023-05-23T10:13:46.848Z,44.97
2023-05-23T10:16:39.017Z,45.03
2023-05-23T10:19:27.151Z,44.96
2023-05-23T10:22:05.091Z,44.64
2023-05-23T10:24:33.044Z,44.56
2023-05-23T10:27:00.573Z,44.62
2023-05-23T10:29:28.011Z,44.58
2023-05-23T10:31:56.462Z,44.61
2023-05-23T10:34:35.754Z,44.46
2023-05-23T10:37:05.127Z,44.41
2023-05-23T10:40:10.906Z,44.47
2023-05-23T10:43:00.160Z,44.49
2023-05-23T10:45:27.965Z,44.20
2023-05-23T10:47:55.912Z,44.29
2023-05-23T10:50:37.273Z,44.36
2023-05-23T10:53:05.685Z,44.32
2023-05-23T10:55:34.183Z,44.27
2023-05-23T10:58:13.053Z,44.34
2023-05-23T11:00:55.067Z,44.30
2023-05-23T11:03:33.847Z,44.21
2023-05-23T11:06:02.789Z,44.18
2023-05-23T11:08:47.856Z,44.21
2023-05-23T11:11:16.924Z,44.16
2023-05-23T11:13:53.394Z,44.28
2023-05-23T11:16:39.923Z,44.20
2023-05-23T11:19:20.036Z,44.27
2023-05-23T11:22:01.971Z,44.21
2023-05-23T11:24:48.855Z,44.23
2023-05-23T11:27:16.617Z,44.19
2023-05-23T11:29:44.142Z,43.55
2023-05-23T11:32:16.818Z,43.38
2023-05-23T11:34:45.422Z,42.88
2023-05-23T11:37:12.976Z,42.83
2023-05-23T11:39:40.702Z,42.89
2023-05-23T11:42:08.447Z,42.64
2023-05-23T11:44:36.032Z,42.77
2023-05-23T11:47:04.675Z,42.43
2023-05-23T11:49:41.455Z,42.51
2023-05-23T11:52:09.354Z,42.33
2023-05-23T11:54:37.178Z,42.42
2023-05-23T11:57:04.983Z,42.34
2023-05-23T11:59:32.418Z,42.24
2023-05-23T12:02:02.693Z,42.19
2023-05-23T12:04:30.534Z,41.89
2023-05-23T12:06:58.036Z,41.83
2023-05-23T12:09:25.709Z,41.92
2023-05-23T12:11:53.488Z,41.62
2023-05-23T12:14:21.019Z,41.72
2023-05-23T12:16:48.650Z,41.61
2023-05-23T12:19:19.499Z,41.18
2023-05-23T12:21:48.027Z,41.19
2023-05-23T12:24:19.721Z,41.33
2023-05-23T12:26:54.905Z,41.29
2023-05-23T12:29:28.731Z,41.12
2023-05-23T12:31:58.058Z,41.16
2023-05-23T12:34:26.514Z,40.94
2023-05-23T12:37:10.240Z,41.04
2023-05-23T12:39:45.783Z,40.68
2023-05-23T12:42:13.436Z,41.08
2023-05-23T12:44:41.622Z,41.11
2023-05-23T12:47:10.452Z,40.99
2023-05-23T12:49:41.198Z,41.23
2023-05-23T12:52:08.929Z,41.21
2023-05-23T12:54:36.524Z,41.36
2023-05-23T12:57:04.030Z,41.26
2023-05-23T12:59:31.745Z,41.29
2023-05-23T13:02:00.510Z,41.23
2023-05-23T13:04:30.243Z,41.30
2023-05-23T13:06:59.666Z,41.56
2023-05-23T13:09:27.140Z,41.85
2023-05-23T13:11:54.842Z,42.05
2023-05-23T13:14:22.498Z,42.23
2023-05-23T13:16:49.997Z,42.35
2023-05-23T13:19:17.700Z,42.46
2023-05-23T13:21:47.348Z,42.60
2023-05-23T13:24:16.239Z,42.80
2023-05-23T13:26:43.828Z,42.89
2023-05-23T13:29:11.723Z,42.68
2023-05-23T13:31:39.265Z,42.67
2023-05-23T13:34:07.021Z,42.66
2023-05-23T13:36:35.861Z,42.64
2023-05-23T13:39:05.703Z,42.67
2023-05-23T13:41:33.154Z,42.64
2023-05-23T13:44:00.864Z,42.38
2023-05-23T13:46:28.368Z,42.38
2023-05-23T13:48:55.938Z,42.41
2023-05-23T13:51:23.689Z,42.37
2023-05-23T13:53:51.287Z,42.36
2023-05-23T13:56:18.873Z,42.21
2023-05-23T13:58:46.822Z,42.49
2023-05-23T14:01:14.267Z,42.74
2023-05-23T14:03:42.027Z,42.90
2023-05-23T14:06:09.516Z,43.09
2023-05-23T14:08:37.004Z,43.22
2023-05-23T14:11:04.739Z,43.30
2023-05-23T14:13:32.898Z,43.31
2023-05-23T14:16:00.406Z,43.52
2023-05-23T14:18:28.184Z,43.52
2023-05-23T14:20:55.692Z,43.50
2023-05-23T14:23:23.094Z,43.50
2023-05-23T14:25:50.888Z,43.45
2023-05-23T14:28:18.363Z,43.44
2023-05-23T14:30:46.352Z,43.45
2023-05-23T14:33:15.138Z,43.33
2023-05-23T14:35:43.514Z,43.27
2023-05-23T14:38:11.202Z,43.26
2023-05-23T14:40:38.998Z,43.25
2023-05-23T14:43:06.520Z,43.22
2023-05-23T14:45:34.027Z,43.21
2023-05-23T14:48:02.443Z,43.29
2023-05-23T14:50:29.937Z,43.36
2023-05-23T14:52:57.490Z,43.28
2023-05-23T14:55:25.785Z,43.21
2023-05-23T14:57:53.271Z,42.89
2023-05-23T15:00:20.867Z,42.44
2023-05-23T15:02:48.656Z,42.46
2023-05-23T15:05:17.132Z,42.54
2023-05-23T15:07:45.557Z,42.29
2023-05-23T15:10:13.338Z,41.96
2023-05-23T15:12:41.118Z,41.59
2023-05-23T15:15:08.913Z,41.55
2023-05-23T15:17:36.920Z,41.62
2023-05-23T15:20:06.963Z,41.66
2023-05-23T15:22:39.363Z,41.37
2023-05-23T15:25:10.671Z,41.13
2023-05-23T15:27:38.293Z,41.20
2023-05-23T15:30:06.343Z,41.17
2023-05-23T15:32:34.140Z,41.15
2023-05-23T15:35:01.601Z,41.15
2023-05-23T15:37:29.431Z,41.23
2023-05-23T15:39:57.185Z,41.31
2023-05-23T15:42:24.721Z,41.22
2023-05-23T15:44:52.213Z,41.04
2023-05-23T15:47:20.933Z,41.10
2023-05-23T15:49:48.439Z,41.33
2023-05-23T15:52:15.966Z,41.39
2023-05-23T15:54:43.696Z,41.43
2023-05-23T15:57:11.148Z,41.53
2023-05-23T15:59:39.185Z,41.69
2023-05-23T16:02:07.122Z,41.79
2023-05-23T16:04:36.166Z,42.00
2023-05-23T16:07:04.002Z,42.18
2023-05-23T16:09:31.523Z,42.24
2023-05-23T16:11:59.210Z,42.42
2023-05-23T16:14:26.822Z,42.47
2023-05-23T16:16:54.346Z,42.52
2023-05-23T16:19:22.123Z,42.57
2023-05-23T16:21:50.368Z,42.66
2023-05-23T16:24:19.386Z,42.71
2023-05-23T16:26:47.090Z,42.74
2023-05-23T16:29:14.590Z,42.78
2023-05-23T16:31:42.101Z,42.85
2023-05-23T16:34:09.825Z,42.91
2023-05-23T16:36:37.684Z,42.91
2023-05-23T16:39:05.157Z,42.91
2023-05-23T16:41:32.906Z,42.91
2023-05-23T16:44:00.360Z,42.90
2023-05-23T16:46:27.887Z,42.79
2023-05-23T16:48:56.130Z,42.66
2023-05-23T16:51:23.607Z,42.50
2023-05-23T16:53:51.187Z,42.45
2023-05-23T16:56:18.940Z,42.37
2023-05-23T16:58:46.714Z,42.28
2023-05-23T17:01:16.417Z,42.16
2023-05-23T17:03:44.145Z,42.13
2023-05-23T17:06:11.641Z,41.93
2023-05-23T17:08:39.093Z,41.90
2023-05-23T17:11:06.852Z,41.87
2023-05-23T17:13:34.833Z,41.83
2023-05-23T17:16:02.457Z,41.80
2023-05-23T17:18:30.222Z,41.75
2023-05-23T17:20:57.995Z,41.33
2023-05-23T17:23:25.812Z,41.11
2023-05-23T17:25:54.206Z,40.96
2023-05-23T17:28:22.453Z,41.02
2023-05-23T17:30:51.691Z,41.02
2023-05-23T17:33:19.647Z,41.04
2023-05-23T17:35:47.103Z,41.21
2023-05-23T17:38:14.682Z,41.32
2023-05-23T17:40:42.598Z,41.41
2023-05-23T17:43:10.277Z,41.47
2023-05-23T17:45:37.783Z,41.54
2023-05-23T17:48:05.781Z,41.62
2023-05-23T17:50:33.262Z,41.70
2023-05-23T17:53:02.764Z,41.78
2023-05-23T17:55:31.817Z,41.84
2023-05-23T17:57:59.244Z,41.87
2023-05-23T18:00:26.823Z,41.99
2023-05-23T18:02:54.739Z,42.04
2023-05-23T18:05:23.696Z,42.11
2023-05-23T18:07:51.148Z,42.12
2023-05-23T18:10:19.566Z,42.09
2023-05-23T18:12:47.599Z,42.19
2023-05-23T18:15:15.094Z,42.18
2023-05-23T18:17:42.929Z,42.19
2023-05-23T18:20:11.082Z,42.22
2023-05-23T18:22:38.586Z,42.33
2023-05-23T18:25:06.816Z,42.29
2023-05-23T18:27:34.336Z,42.41
2023-05-23T18:30:01.917Z,42.41
2023-05-23T18:32:31.477Z,42.43
2023-05-23T18:34:59.004Z,42.43
2023-05-23T18:37:26.482Z,42.56
2023-05-23T18:39:58.058Z,42.64
2023-05-23T18:42:25.582Z,42.67
2023-05-23T18:44:53.131Z,42.70
2023-05-23T18:47:21.203Z,42.75
2023-05-23T18:49:49.768Z,42.84
2023-05-23T18:52:17.274Z,42.88
2023-05-23T18:54:45.209Z,42.88
2023-05-23T18:57:12.796Z,42.85
2023-05-23T18:59:40.489Z,42.93
2023-05-23T19:02:08.532Z,43.00
2023-05-23T19:04:36.184Z,42.98
2023-05-23T19:07:03.724Z,43.03
2023-05-23T19:09:31.705Z,43.07
2023-05-23T19:11:59.296Z,43.04
2023-05-23T19:14:26.872Z,42.98
2023-05-23T19:16:55.033Z,42.96
2023-05-23T19:19:22.582Z,42.97
2023-05-23T19:21:51.048Z,42.97
2023-05-23T19:24:18.806Z,42.93
2023-05-23T19:26:46.603Z,42.88
2023-05-23T19:29:14.057Z,42.90
2023-05-23T19:31:42.244Z,42.93
2023-05-23T19:34:09.778Z,43.00
2023-05-23T19:36:37.350Z,43.02
2023-05-23T19:39:05.137Z,42.96
2023-05-23T19:41:32.867Z,42.88
2023-05-23T19:44:03.725Z,42.92
2023-05-23T19:46:32.997Z,42.96
2023-05-23T19:49:00.969Z,42.84
2023-05-23T19:51:28.544Z,42.77
2023-05-23T19:53:56.465Z,42.82
2023-05-23T19:56:25.227Z,42.85
2023-05-23T19:58:52.733Z,42.86
2023-05-23T20:01:20.468Z,42.85
2023-05-23T20:03:48.575Z,42.80
2023-05-23T20:06:16.820Z,42.85
2023-05-23T20:08:44.412Z,42.87
2023-05-23T20:11:12.615Z,42.88
2023-05-23T20:13:40.463Z,42.90
2023-05-23T20:16:08.318Z,42.93
2023-05-23T20:18:36.411Z,42.92
2023-05-23T20:21:05.344Z,42.92
2023-05-23T20:23:33.009Z,42.93
2023-05-23T20:26:01.100Z,42.91
2023-05-23T20:28:28.569Z,42.91
2023-05-23T20:30:56.054Z,42.89
2023-05-23T20:33:24.071Z,42.85
2023-05-23T20:35:51.570Z,42.86
2023-05-23T20:38:20.011Z,42.80
2023-05-23T20:40:50.830Z,42.80
2023-05-23T20:43:20.395Z,42.83
2023-05-23T20:45:48.401Z,42.87
2023-05-23T20:48:16.218Z,42.85
2023-05-23T20:50:44.356Z,42.83
2023-05-23T20:53:12.255Z,42.86
2023-05-23T20:55:39.875Z,42.89
2023-05-23T20:58:07.673Z,42.86
2023-05-23T21:00:35.594Z,42.85
2023-05-23T21:03:03.339Z,42.87
2023-05-23T21:05:30.889Z,42.86
2023-05-23T21:07:58.773Z,42.89
2023-05-23T21:10:26.469Z,42.89
2023-05-23T21:12:53.934Z,42.90
2023-05-23T21:15:21.794Z,43.07
2023-05-23T21:17:51.314Z,43.24
2023-05-23T21:20:22.225Z,43.22
2023-05-23T21:22:50.132Z,43.24
2023-05-23T21:25:17.636Z,43.27
2023-05-23T21:27:45.155Z,43.28
2023-05-23T21:30:14.131Z,43.30
2023-05-23T21:32:43.062Z,43.34
2023-05-23T21:35:10.508Z,43.40
2023-05-23T21:37:38.196Z,43.47
2023-05-23T21:40:06.348Z,43.49
2023-05-23T21:42:33.791Z,43.51
2023-05-23T21:45:01.566Z,43.55
2023-05-23T21:47:31.365Z,43.58
2023-05-23T21:49:58.788Z,43.39
2023-05-23T21:52:26.646Z,43.61
2023-05-23T21:54:54.148Z,43.71
2023-05-23T21:57:21.621Z,43.76
2023-05-23T21:59:49.372Z,43.79
2023-05-23T22:02:17.350Z,43.79
2023-05-23T22:04:46.153Z,43.78
2023-05-23T22:07:13.613Z,43.77
2023-05-23T22:09:41.107Z,43.75
2023-05-23T22:12:09.066Z,43.73
2023-05-23T22:14:36.553Z,43.71
2023-05-23T22:17:04.452Z,43.70
2023-05-23T22:19:32.275Z,43.69
2023-05-23T22:21:59.749Z,43.66
2023-05-23T22:24:27.196Z,43.65
2023-05-23T22:26:54.921Z,43.63
2023-05-23T22:29:22.361Z,43.66
2023-05-23T22:31:49.905Z,43.67
2023-05-23T22:34:17.637Z,43.65
2023-05-23T22:36:45.070Z,43.63
2023-05-23T22:39:12.963Z,43.64
2023-05-23T22:41:40.836Z,43.65
2023-05-23T22:44:08.281Z,43.70
2023-05-23T22:46:36.537Z,43.71
2023-05-23T22:49:04.311Z,43.71
2023-05-23T22:51:34.034Z,43.73
2023-05-23T22:54:01.874Z,43.76
2023-05-23T22:56:29.576Z,43.78
2023-05-23T22:58:57.021Z,43.83
2023-05-23T23:01:24.507Z,43.80
2023-05-23T23:03:52.412Z,43.77
2023-05-23T23:06:21.053Z,43.78
2023-05-23T23:08:49.732Z,43.82
2023-05-23T23:11:17.520Z,43.85
2023-05-23T23:13:44.981Z,43.87
2023-05-23T23:16:13.155Z,43.91
2023-05-23T23:18:41.266Z,43.97
2023-05-23T23:21:08.712Z,44.11
2023-05-23T23:23:36.684Z,44.21
2023-05-23T23:26:04.558Z,44.23
2023-05-23T23:28:32.059Z,44.25
2023-05-23T23:30:59.494Z,44.24
2023-05-23T23:33:27.234Z,44.26
2023-05-23T23:35:54.690Z,44.23
2023-05-23T23:38:22.152Z,44.20
2023-05-23T23:40:49.926Z,44.19
2023-05-23T23:43:17.443Z,44.19
2023-05-23T23:45:45.459Z,44.17
2023-05-23T23:48:13.953Z,44.16
2023-05-23T23:50:41.689Z,44.16
2023-05-23T23:53:09.401Z,44.15
2023-05-23T23:55:37.159Z,44.12
2023-05-23T23:58:04.607Z,44.09
